sensor_id;sensor_type;location;lat;lon;timestamp;pressure;altitude;pressure_sealevel;temperature;humidity
36192;BME280;22233;42.708;23.360;2024-03-06T00:01:29;95150.72;;;7.27;71.93
36192;BME280;22233;42.708;23.360;2024-03-06T00:03:54;95139.41;;;6.92;73.43
36192;BME280;22233;42.708;23.360;2024-03-06T00:06:20;95155.63;;;6.92;73.65
36192;BME280;22233;42.708;23.360;2024-03-06T00:08:45;95154.44;;;7.58;71.47
36192;BME280;22233;42.708;23.360;2024-03-06T00:11:10;95160.88;;;7.63;70.12
36192;BME280;22233;42.708;23.360;2024-03-06T00:13:36;95135.53;;;7.45;70.73
36192;BME280;22233;42.708;23.360;2024-03-06T00:16:01;95154.84;;;7.93;69.65
36192;BME280;22233;42.708;23.360;2024-03-06T00:18:26;95137.31;;;7.77;69.89
36192;BME280;22233;42.708;23.360;2024-03-06T00:20:52;95144.31;;;7.92;69.29
36192;BME280;22233;42.708;23.360;2024-03-06T00:23:17;95141.03;;;7.95;69.60
36192;BME280;22233;42.708;23.360;2024-03-06T00:25:43;95148.31;;;7.94;69.47
36192;BME280;22233;42.708;23.360;2024-03-06T00:28:08;95156.34;;;7.99;69.14
36192;BME280;22233;42.708;23.360;2024-03-06T00:30:33;95153.50;;;8.05;69.15
36192;BME280;22233;42.708;23.360;2024-03-06T00:32:59;95153.22;;;7.92;68.99
36192;BME280;22233;42.708;23.360;2024-03-06T00:35:24;95140.03;;;7.91;70.21
36192;BME280;22233;42.708;23.360;2024-03-06T00:37:52;95137.50;;;7.94;68.79
36192;BME280;22233;42.708;23.360;2024-03-06T00:40:18;95164.22;;;8.24;68.64
36192;BME280;22233;42.708;23.360;2024-03-06T00:42:43;95154.94;;;7.88;69.57
36192;BME280;22233;42.708;23.360;2024-03-06T00:47:53;95157.53;;;7.52;71.28
36192;BME280;22233;42.708;23.360;2024-03-06T00:50:18;95149.31;;;7.29;71.74
36192;BME280;22233;42.708;23.360;2024-03-06T00:52:46;95164.16;;;6.99;72.30
36192;BME280;22233;42.708;23.360;2024-03-06T00:55:11;95159.25;;;7.01;72.82
36192;BME280;22233;42.708;23.360;2024-03-06T00:57:37;95161.44;;;6.99;73.57
36192;BME280;22233;42.708;23.360;2024-03-06T01:00:03;95173.59;;;7.15;72.82
36192;BME280;22233;42.708;23.360;2024-03-06T01:02:36;95156.63;;;7.29;72.54
36192;BME280;22233;42.708;23.360;2024-03-06T01:05:01;95162.28;;;7.13;72.92
36192;BME280;22233;42.708;23.360;2024-03-06T01:07:29;95154.00;;;7.24;72.21
36192;BME280;22233;42.708;23.360;2024-03-06T01:09:54;95149.63;;;7.42;71.83
36192;BME280;22233;42.708;23.360;2024-03-06T01:12:19;95162.72;;;7.20;72.94
36192;BME280;22233;42.708;23.360;2024-03-06T01:14:45;95167.25;;;7.39;71.97
36192;BME280;22233;42.708;23.360;2024-03-06T01:17:10;95163.44;;;7.68;70.23
36192;BME280;22233;42.708;23.360;2024-03-06T01:19:35;95153.53;;;7.63;70.01
36192;BME280;22233;42.708;23.360;2024-03-06T01:22:01;95165.38;;;7.81;70.56
36192;BME280;22233;42.708;23.360;2024-03-06T01:24:26;95165.94;;;7.78;69.97
36192;BME280;22233;42.708;23.360;2024-03-06T01:26:51;95154.13;;;7.88;69.46
36192;BME280;22233;42.708;23.360;2024-03-06T01:29:17;95166.53;;;8.03;69.61
36192;BME280;22233;42.708;23.360;2024-03-06T01:31:43;95168.50;;;8.25;68.19
36192;BME280;22233;42.708;23.360;2024-03-06T01:34:11;95169.53;;;8.15;67.65
36192;BME280;22233;42.708;23.360;2024-03-06T01:36:37;95154.81;;;8.07;67.68
36192;BME280;22233;42.708;23.360;2024-03-06T01:39:02;95147.47;;;8.22;66.74
36192;BME280;22233;42.708;23.360;2024-03-06T01:41:28;95176.31;;;8.40;67.46
36192;BME280;22233;42.708;23.360;2024-03-06T01:43:53;95156.66;;;8.34;67.38
36192;BME280;22233;42.708;23.360;2024-03-06T01:46:18;95165.69;;;8.44;66.68
36192;BME280;22233;42.708;23.360;2024-03-06T01:48:44;95163.84;;;8.39;66.42
36192;BME280;22233;42.708;23.360;2024-03-06T01:51:09;95150.25;;;8.30;66.53
36192;BME280;22233;42.708;23.360;2024-03-06T01:53:35;95160.59;;;8.14;66.37
36192;BME280;22233;42.708;23.360;2024-03-06T01:56:02;95153.34;;;7.73;67.32
36192;BME280;22233;42.708;23.360;2024-03-06T01:58:29;95170.94;;;7.98;66.56
36192;BME280;22233;42.708;23.360;2024-03-06T02:00:56;95165.16;;;7.77;67.49
36192;BME280;22233;42.708;23.360;2024-03-06T02:03:22;95175.28;;;7.86;66.51
36192;BME280;22233;42.708;23.360;2024-03-06T02:05:49;95166.94;;;7.82;66.78
36192;BME280;22233;42.708;23.360;2024-03-06T02:08:14;95181.09;;;7.79;67.21
36192;BME280;22233;42.708;23.360;2024-03-06T02:10:40;95177.66;;;7.59;66.91
36192;BME280;22233;42.708;23.360;2024-03-06T02:13:06;95187.78;;;7.54;67.06
36192;BME280;22233;42.708;23.360;2024-03-06T02:15:31;95188.75;;;7.44;67.06
36192;BME280;22233;42.708;23.360;2024-03-06T02:17:57;95188.34;;;7.37;67.28
36192;BME280;22233;42.708;23.360;2024-03-06T02:20:24;95178.72;;;7.17;68.14
36192;BME280;22233;42.708;23.360;2024-03-06T02:22:50;95189.34;;;7.27;68.48
36192;BME280;22233;42.708;23.360;2024-03-06T02:25:16;95203.47;;;7.05;68.64
36192;BME280;22233;42.708;23.360;2024-03-06T02:27:42;95195.09;;;7.07;68.52
36192;BME280;22233;42.708;23.360;2024-03-06T02:30:09;95195.81;;;7.12;68.71
36192;BME280;22233;42.708;23.360;2024-03-06T02:32:34;95200.84;;;7.00;68.36
36192;BME280;22233;42.708;23.360;2024-03-06T02:35:01;95201.34;;;7.02;68.47
36192;BME280;22233;42.708;23.360;2024-03-06T02:37:28;95206.25;;;7.00;68.53
36192;BME280;22233;42.708;23.360;2024-03-06T02:39:53;95205.41;;;6.86;69.58
36192;BME280;22233;42.708;23.360;2024-03-06T02:42:19;95188.53;;;6.94;68.99
36192;BME280;22233;42.708;23.360;2024-03-06T02:44:44;95215.03;;;6.92;68.63
36192;BME280;22233;42.708;23.360;2024-03-06T02:47:09;95207.75;;;6.92;68.46
36192;BME280;22233;42.708;23.360;2024-03-06T02:49:35;95208.84;;;6.91;68.38
36192;BME280;22233;42.708;23.360;2024-03-06T02:52:00;95205.56;;;6.94;68.51
36192;BME280;22233;42.708;23.360;2024-03-06T02:54:27;95191.84;;;6.72;69.04
36192;BME280;22233;42.708;23.360;2024-03-06T02:56:52;95187.34;;;6.67;68.98
36192;BME280;22233;42.708;23.360;2024-03-06T02:59:18;95200.00;;;6.86;68.75
36192;BME280;22233;42.708;23.360;2024-03-06T03:01:44;95203.16;;;6.93;68.30
36192;BME280;22233;42.708;23.360;2024-03-06T03:04:10;95212.03;;;6.93;68.14
36192;BME280;22233;42.708;23.360;2024-03-06T03:06:35;95200.00;;;6.86;68.14
36192;BME280;22233;42.708;23.360;2024-03-06T03:09:01;95208.25;;;6.75;68.58
36192;BME280;22233;42.708;23.360;2024-03-06T03:11:27;95195.53;;;6.62;69.23
36192;BME280;22233;42.708;23.360;2024-03-06T03:13:53;95202.72;;;6.86;68.91
36192;BME280;22233;42.708;23.360;2024-03-06T03:16:19;95213.00;;;6.84;68.39
36192;BME280;22233;42.708;23.360;2024-03-06T03:18:45;95204.16;;;6.78;68.26
36192;BME280;22233;42.708;23.360;2024-03-06T03:21:10;95203.13;;;6.60;69.11
36192;BME280;22233;42.708;23.360;2024-03-06T03:23:37;95207.53;;;6.70;68.67
36192;BME280;22233;42.708;23.360;2024-03-06T03:26:02;95211.97;;;6.79;68.46
36192;BME280;22233;42.708;23.360;2024-03-06T03:28:29;95215.34;;;6.71;68.95
36192;BME280;22233;42.708;23.360;2024-03-06T03:30:55;95220.63;;;6.63;69.19
36192;BME280;22233;42.708;23.360;2024-03-06T03:33:22;95205.16;;;6.68;69.12
36192;BME280;22233;42.708;23.360;2024-03-06T03:35:47;95202.34;;;6.73;68.96
36192;BME280;22233;42.708;23.360;2024-03-06T03:38:13;95223.44;;;6.71;69.05
36192;BME280;22233;42.708;23.360;2024-03-06T03:40:38;95203.41;;;6.58;69.25
36192;BME280;22233;42.708;23.360;2024-03-06T03:43:04;95213.59;;;6.62;69.61
36192;BME280;22233;42.708;23.360;2024-03-06T03:45:35;95217.25;;;6.52;69.23
36192;BME280;22233;42.708;23.360;2024-03-06T03:48:04;95216.59;;;6.41;69.54
36192;BME280;22233;42.708;23.360;2024-03-06T03:50:29;95210.44;;;6.16;70.70
36192;BME280;22233;42.708;23.360;2024-03-06T03:52:55;95214.06;;;5.83;72.29
36192;BME280;22233;42.708;23.360;2024-03-06T03:55:25;95213.25;;;6.30;69.89
36192;BME280;22233;42.708;23.360;2024-03-06T03:57:51;95225.34;;;6.52;69.27
36192;BME280;22233;42.708;23.360;2024-03-06T04:00:17;95218.19;;;5.99;70.89
36192;BME280;22233;42.708;23.360;2024-03-06T04:02:43;95229.28;;;5.97;70.65
36192;BME280;22233;42.708;23.360;2024-03-06T04:05:08;95204.53;;;5.90;69.93
36192;BME280;22233;42.708;23.360;2024-03-06T04:07:35;95228.06;;;6.09;69.82
36192;BME280;22233;42.708;23.360;2024-03-06T04:10:01;95233.69;;;6.12;69.96
36192;BME280;22233;42.708;23.360;2024-03-06T04:12:27;95229.03;;;6.18;69.88
36192;BME280;22233;42.708;23.360;2024-03-06T04:14:52;95228.25;;;6.36;69.26
36192;BME280;22233;42.708;23.360;2024-03-06T04:17:18;95240.13;;;6.35;69.42
36192;BME280;22233;42.708;23.360;2024-03-06T04:19:43;95246.56;;;6.39;68.99
36192;BME280;22233;42.708;23.360;2024-03-06T04:22:08;95244.16;;;6.57;68.79
36192;BME280;22233;42.708;23.360;2024-03-06T04:24:34;95244.97;;;6.38;68.85
36192;BME280;22233;42.708;23.360;2024-03-06T04:26:59;95255.53;;;6.35;69.12
36192;BME280;22233;42.708;23.360;2024-03-06T04:29:24;95257.00;;;6.46;69.19
36192;BME280;22233;42.708;23.360;2024-03-06T04:31:50;95253.44;;;6.51;68.69
36192;BME280;22233;42.708;23.360;2024-03-06T04:34:15;95246.34;;;6.74;67.81
36192;BME280;22233;42.708;23.360;2024-03-06T04:36:40;95260.66;;;6.93;67.25
36192;BME280;22233;42.708;23.360;2024-03-06T04:39:06;95259.63;;;6.89;67.21
36192;BME280;22233;42.708;23.360;2024-03-06T04:41:33;95246.66;;;6.72;67.46
36192;BME280;22233;42.708;23.360;2024-03-06T04:43:58;95266.84;;;6.94;67.79
36192;BME280;22233;42.708;23.360;2024-03-06T04:46:26;95264.81;;;7.05;67.10
36192;BME280;22233;42.708;23.360;2024-03-06T04:48:52;95265.03;;;6.89;67.63
36192;BME280;22233;42.708;23.360;2024-03-06T04:51:17;95258.41;;;6.63;68.57
36192;BME280;22233;42.708;23.360;2024-03-06T04:53:45;95272.34;;;6.89;67.68
36192;BME280;22233;42.708;23.360;2024-03-06T04:56:11;95277.94;;;6.73;68.61
36192;BME280;22233;42.708;23.360;2024-03-06T04:58:36;95267.88;;;6.60;68.01
36192;BME280;22233;42.708;23.360;2024-03-06T05:01:01;95279.47;;;6.79;67.60
36192;BME280;22233;42.708;23.360;2024-03-06T05:03:28;95268.69;;;6.60;67.87
36192;BME280;22233;42.708;23.360;2024-03-06T05:05:54;95262.22;;;6.18;68.71
36192;BME280;22233;42.708;23.360;2024-03-06T05:08:19;95272.75;;;6.39;68.71
36192;BME280;22233;42.708;23.360;2024-03-06T05:10:45;95284.06;;;6.17;69.59
36192;BME280;22233;42.708;23.360;2024-03-06T05:13:11;95282.09;;;6.47;68.69
36192;BME280;22233;42.708;23.360;2024-03-06T05:15:36;95277.47;;;6.28;69.93
36192;BME280;22233;42.708;23.360;2024-03-06T05:18:01;95288.06;;;6.44;68.98
36192;BME280;22233;42.708;23.360;2024-03-06T05:20:28;95266.09;;;6.07;71.22
36192;BME280;22233;42.708;23.360;2024-03-06T05:22:56;95244.19;;;5.90;71.51
36192;BME280;22233;42.708;23.360;2024-03-06T05:25:21;95289.06;;;5.75;74.46
36192;BME280;22233;42.708;23.360;2024-03-06T05:27:46;95294.66;;;5.84;73.19
36192;BME280;22233;42.708;23.360;2024-03-06T05:30:12;95283.94;;;6.27;71.81
36192;BME280;22233;42.708;23.360;2024-03-06T05:32:37;95292.78;;;6.33;71.76
36192;BME280;22233;42.708;23.360;2024-03-06T05:35:03;95287.19;;;6.48;71.19
36192;BME280;22233;42.708;23.360;2024-03-06T05:37:28;95261.94;;;5.91;73.42
36192;BME280;22233;42.708;23.360;2024-03-06T05:39:54;95291.56;;;6.44;73.21
36192;BME280;22233;42.708;23.360;2024-03-06T05:42:19;95284.34;;;6.15;73.12
36192;BME280;22233;42.708;23.360;2024-03-06T05:44:45;95297.31;;;6.37;73.66
36192;BME280;22233;42.708;23.360;2024-03-06T05:47:11;95300.28;;;6.60;72.50
36192;BME280;22233;42.708;23.360;2024-03-06T05:49:37;95312.25;;;6.92;72.31
36192;BME280;22233;42.708;23.360;2024-03-06T05:52:02;95309.63;;;7.06;71.33
36192;BME280;22233;42.708;23.360;2024-03-06T05:54:28;95316.13;;;7.05;70.36
36192;BME280;22233;42.708;23.360;2024-03-06T05:56:54;95308.47;;;6.93;71.35
36192;BME280;22233;42.708;23.360;2024-03-06T05:59:20;95312.56;;;6.90;71.25
36192;BME280;22233;42.708;23.360;2024-03-06T06:01:45;95305.41;;;6.80;71.37
36192;BME280;22233;42.708;23.360;2024-03-06T06:04:11;95311.06;;;6.98;70.97
36192;BME280;22233;42.708;23.360;2024-03-06T06:06:38;95330.28;;;6.96;70.92
36192;BME280;22233;42.708;23.360;2024-03-06T06:09:04;95320.28;;;6.97;70.06
36192;BME280;22233;42.708;23.360;2024-03-06T06:11:33;95319.03;;;6.89;70.21
36192;BME280;22233;42.708;23.360;2024-03-06T06:13:59;95310.38;;;6.92;69.74
36192;BME280;22233;42.708;23.360;2024-03-06T06:16:24;95317.94;;;7.09;69.57
36192;BME280;22233;42.708;23.360;2024-03-06T06:18:50;95320.25;;;7.16;69.23
36192;BME280;22233;42.708;23.360;2024-03-06T06:21:15;95315.09;;;7.19;69.07
36192;BME280;22233;42.708;23.360;2024-03-06T06:23:41;95324.13;;;7.10;69.57
36192;BME280;22233;42.708;23.360;2024-03-06T06:26:06;95306.97;;;7.19;70.28
36192;BME280;22233;42.708;23.360;2024-03-06T06:28:32;95322.47;;;7.33;69.82
36192;BME280;22233;42.708;23.360;2024-03-06T06:30:57;95308.63;;;7.34;72.29
36192;BME280;22233;42.708;23.360;2024-03-06T06:33:22;95313.66;;;7.74;75.16
36192;BME280;22233;42.708;23.360;2024-03-06T06:35:48;95320.19;;;7.73;69.15
36192;BME280;22233;42.708;23.360;2024-03-06T06:38:13;95312.09;;;7.54;69.93
36192;BME280;22233;42.708;23.360;2024-03-06T06:40:39;95312.63;;;7.89;72.43
36192;BME280;22233;42.708;23.360;2024-03-06T06:43:06;95324.06;;;8.13;69.35
36192;BME280;22233;42.708;23.360;2024-03-06T06:45:31;95314.78;;;8.47;70.71
36192;BME280;22233;42.708;23.360;2024-03-06T06:47:57;95324.28;;;8.72;66.94
36192;BME280;22233;42.708;23.360;2024-03-06T06:50:22;95325.09;;;8.59;67.56
36192;BME280;22233;42.708;23.360;2024-03-06T06:52:51;95318.16;;;8.53;67.45
36192;BME280;22233;42.708;23.360;2024-03-06T06:55:16;95322.69;;;8.71;67.22
36192;BME280;22233;42.708;23.360;2024-03-06T06:57:41;95336.13;;;8.63;68.74
36192;BME280;22233;42.708;23.360;2024-03-06T07:00:07;95333.72;;;9.11;68.79
36192;BME280;22233;42.708;23.360;2024-03-06T07:02:39;95318.09;;;9.31;65.69
36192;BME280;22233;42.708;23.360;2024-03-06T07:05:07;95303.78;;;8.94;64.98
36192;BME280;22233;42.708;23.360;2024-03-06T07:07:33;95330.97;;;8.06;69.37
36192;BME280;22233;42.708;23.360;2024-03-06T07:10:00;95327.91;;;8.54;67.69
36192;BME280;22233;42.708;23.360;2024-03-06T07:12:25;95326.06;;;8.63;66.94
36192;BME280;22233;42.708;23.360;2024-03-06T07:14:50;95325.50;;;8.66;67.46
36192;BME280;22233;42.708;23.360;2024-03-06T07:17:16;95337.91;;;9.17;66.00
36192;BME280;22233;42.708;23.360;2024-03-06T07:19:41;95334.19;;;9.27;67.85
36192;BME280;22233;42.708;23.360;2024-03-06T07:22:06;95324.47;;;9.49;66.90
36192;BME280;22233;42.708;23.360;2024-03-06T07:24:32;95323.72;;;9.79;66.22
36192;BME280;22233;42.708;23.360;2024-03-06T07:26:58;95334.50;;;9.93;65.45
36192;BME280;22233;42.708;23.360;2024-03-06T07:29:23;95337.38;;;9.97;63.26
36192;BME280;22233;42.708;23.360;2024-03-06T07:31:48;95331.34;;;9.77;63.85
36192;BME280;22233;42.708;23.360;2024-03-06T07:34:14;95336.84;;;9.86;64.00
36192;BME280;22233;42.708;23.360;2024-03-06T07:36:40;95333.25;;;9.99;63.69
36192;BME280;22233;42.708;23.360;2024-03-06T07:39:06;95318.13;;;9.76;64.22
36192;BME280;22233;42.708;23.360;2024-03-06T07:41:32;95322.66;;;9.89;64.96
36192;BME280;22233;42.708;23.360;2024-03-06T07:44:00;95318.66;;;10.18;64.68
36192;BME280;22233;42.708;23.360;2024-03-06T07:46:26;95336.22;;;10.52;63.79
36192;BME280;22233;42.708;23.360;2024-03-06T07:48:51;95333.84;;;10.50;63.68
36192;BME280;22233;42.708;23.360;2024-03-06T07:51:17;95323.78;;;10.51;61.59
36192;BME280;22233;42.708;23.360;2024-03-06T07:53:43;95329.91;;;10.74;61.97
36192;BME280;22233;42.708;23.360;2024-03-06T07:56:11;95315.88;;;10.89;61.82
36192;BME280;22233;42.708;23.360;2024-03-06T07:58:37;95324.56;;;11.17;61.58
36192;BME280;22233;42.708;23.360;2024-03-06T08:01:03;95330.00;;;11.17;60.48
36192;BME280;22233;42.708;23.360;2024-03-06T08:03:28;95324.22;;;10.93;63.18
36192;BME280;22233;42.708;23.360;2024-03-06T08:05:54;95335.16;;;10.70;61.16
36192;BME280;22233;42.708;23.360;2024-03-06T08:08:19;95329.88;;;10.56;63.19
36192;BME280;22233;42.708;23.360;2024-03-06T08:10:45;95327.38;;;10.86;63.74
36192;BME280;22233;42.708;23.360;2024-03-06T08:13:11;95323.72;;;10.91;63.04
36192;BME280;22233;42.708;23.360;2024-03-06T08:15:36;95330.03;;;9.97;65.06
36192;BME280;22233;42.708;23.360;2024-03-06T08:18:02;95326.41;;;10.02;65.09
36192;BME280;22233;42.708;23.360;2024-03-06T08:20:29;95329.69;;;10.22;64.33
36192;BME280;22233;42.708;23.360;2024-03-06T08:22:56;95320.25;;;10.19;63.26
36192;BME280;22233;42.708;23.360;2024-03-06T08:25:21;95323.41;;;10.35;64.29
36192;BME280;22233;42.708;23.360;2024-03-06T08:27:47;95325.56;;;10.64;62.46
36192;BME280;22233;42.708;23.360;2024-03-06T08:30:12;95299.28;;;10.99;60.99
36192;BME280;22233;42.708;23.360;2024-03-06T08:32:38;95322.97;;;11.25;61.54
36192;BME280;22233;42.708;23.360;2024-03-06T08:35:05;95320.88;;;11.13;61.99
36192;BME280;22233;42.708;23.360;2024-03-06T08:37:32;95322.00;;;11.30;59.74
36192;BME280;22233;42.708;23.360;2024-03-06T08:39:59;95326.94;;;11.10;61.48
36192;BME280;22233;42.708;23.360;2024-03-06T08:42:25;95317.34;;;10.95;62.24
36192;BME280;22233;42.708;23.360;2024-03-06T08:44:50;95328.88;;;11.18;61.16
36192;BME280;22233;42.708;23.360;2024-03-06T08:47:16;95324.72;;;11.30;60.83
36192;BME280;22233;42.708;23.360;2024-03-06T08:49:41;95307.78;;;11.59;60.40
36192;BME280;22233;42.708;23.360;2024-03-06T08:52:06;95321.03;;;11.52;60.34
36192;BME280;22233;42.708;23.360;2024-03-06T08:54:32;95321.22;;;11.55;60.98
36192;BME280;22233;42.708;23.360;2024-03-06T08:56:57;95299.44;;;11.64;60.11
36192;BME280;22233;42.708;23.360;2024-03-06T08:59:24;95311.91;;;11.74;58.49
36192;BME280;22233;42.708;23.360;2024-03-06T09:01:53;95320.56;;;11.93;57.81
36192;BME280;22233;42.708;23.360;2024-03-06T09:04:19;95321.34;;;11.50;59.60
36192;BME280;22233;42.708;23.360;2024-03-06T09:06:45;95318.78;;;11.71;59.04
36192;BME280;22233;42.708;23.360;2024-03-06T09:09:10;95325.91;;;12.28;56.97
36192;BME280;22233;42.708;23.360;2024-03-06T09:11:35;95308.38;;;11.65;58.67
36192;BME280;22233;42.708;23.360;2024-03-06T09:14:01;95321.19;;;11.03;60.19
36192;BME280;22233;42.708;23.360;2024-03-06T09:16:26;95307.44;;;11.69;60.17
36192;BME280;22233;42.708;23.360;2024-03-06T09:18:52;95298.63;;;12.37;59.18
36192;BME280;22233;42.708;23.360;2024-03-06T09:21:18;95314.94;;;12.75;56.82
36192;BME280;22233;42.708;23.360;2024-03-06T09:23:45;95309.59;;;12.11;56.97
36192;BME280;22233;42.708;23.360;2024-03-06T09:26:10;95302.44;;;11.80;58.29
36192;BME280;22233;42.708;23.360;2024-03-06T09:28:35;95297.97;;;11.93;58.49
36192;BME280;22233;42.708;23.360;2024-03-06T09:31:01;95303.72;;;12.77;57.34
36192;BME280;22233;42.708;23.360;2024-03-06T09:33:26;95301.50;;;13.00;55.94
36192;BME280;22233;42.708;23.360;2024-03-06T09:35:51;95303.13;;;13.43;56.16
36192;BME280;22233;42.708;23.360;2024-03-06T09:38:17;95300.38;;;13.97;53.37
36192;BME280;22233;42.708;23.360;2024-03-06T09:40:42;95299.06;;;13.70;53.93
36192;BME280;22233;42.708;23.360;2024-03-06T09:43:08;95304.00;;;13.89;51.89
36192;BME280;22233;42.708;23.360;2024-03-06T09:45:34;95299.19;;;13.86;52.68
36192;BME280;22233;42.708;23.360;2024-03-06T09:48:00;95296.78;;;14.18;52.31
36192;BME280;22233;42.708;23.360;2024-03-06T09:50:27;95286.75;;;14.10;50.49
36192;BME280;22233;42.708;23.360;2024-03-06T09:52:55;95279.28;;;14.31;51.52
36192;BME280;22233;42.708;23.360;2024-03-06T09:55:21;95283.06;;;14.39;51.21
36192;BME280;22233;42.708;23.360;2024-03-06T09:57:47;95287.75;;;14.75;49.58
36192;BME280;22233;42.708;23.360;2024-03-06T10:00:13;95277.03;;;14.58;51.57
36192;BME280;22233;42.708;23.360;2024-03-06T10:02:44;95264.38;;;14.90;49.15
36192;BME280;22233;42.708;23.360;2024-03-06T10:05:24;95262.69;;;14.86;49.31
36192;BME280;22233;42.708;23.360;2024-03-06T10:07:50;95272.03;;;14.72;48.96
36192;BME280;22233;42.708;23.360;2024-03-06T10:10:17;95258.53;;;15.04;48.20
36192;BME280;22233;42.708;23.360;2024-03-06T10:12:44;95273.28;;;14.87;47.61
36192;BME280;22233;42.708;23.360;2024-03-06T10:15:10;95242.19;;;14.67;49.44
36192;BME280;22233;42.708;23.360;2024-03-06T10:17:37;95258.31;;;15.09;47.09
36192;BME280;22233;42.708;23.360;2024-03-06T10:20:20;95252.72;;;15.46;47.26
36192;BME280;22233;42.708;23.360;2024-03-06T10:22:49;95256.06;;;15.68;47.15
36192;BME280;22233;42.708;23.360;2024-03-06T10:25:18;95251.56;;;15.88;45.37
36192;BME280;22233;42.708;23.360;2024-03-06T10:27:44;95240.31;;;15.65;45.63
36192;BME280;22233;42.708;23.360;2024-03-06T10:30:10;95232.31;;;15.15;45.70
36192;BME280;22233;42.708;23.360;2024-03-06T10:32:38;95229.50;;;15.40;46.17
36192;BME280;22233;42.708;23.360;2024-03-06T10:35:04;95228.81;;;15.87;46.77
36192;BME280;22233;42.708;23.360;2024-03-06T10:37:32;95230.09;;;16.06;46.08
36192;BME280;22233;42.708;23.360;2024-03-06T10:40:02;95229.56;;;15.15;45.92
36192;BME280;22233;42.708;23.360;2024-03-06T10:42:32;95236.56;;;15.01;46.34
36192;BME280;22233;42.708;23.360;2024-03-06T10:44:59;95222.75;;;15.09;45.43
36192;BME280;22233;42.708;23.360;2024-03-06T10:47:26;95216.47;;;15.49;44.64
36192;BME280;22233;42.708;23.360;2024-03-06T10:49:53;95220.88;;;14.61;46.78
36192;BME280;22233;42.708;23.360;2024-03-06T10:52:20;95222.13;;;14.75;46.70
36192;BME280;22233;42.708;23.360;2024-03-06T10:54:47;95212.81;;;14.64;46.01
36192;BME280;22233;42.708;23.360;2024-03-06T10:57:14;95208.53;;;15.32;45.75
36192;BME280;22233;42.708;23.360;2024-03-06T10:59:40;95214.56;;;16.10;43.20
36192;BME280;22233;42.708;23.360;2024-03-06T11:02:08;95206.06;;;16.15;43.62
36192;BME280;22233;42.708;23.360;2024-03-06T11:04:34;95194.81;;;15.88;44.44
36192;BME280;22233;42.708;23.360;2024-03-06T11:07:03;95195.88;;;16.31;42.81
36192;BME280;22233;42.708;23.360;2024-03-06T11:09:36;95197.19;;;16.37;43.17
36192;BME280;22233;42.708;23.360;2024-03-06T11:12:05;95182.81;;;16.25;41.81
36192;BME280;22233;42.708;23.360;2024-03-06T11:14:38;95182.56;;;16.14;42.55
36192;BME280;22233;42.708;23.360;2024-03-06T11:17:10;95184.97;;;16.51;41.78
36192;BME280;22233;42.708;23.360;2024-03-06T11:20:08;95178.63;;;16.47;42.01
36192;BME280;22233;42.708;23.360;2024-03-06T11:28:47;95163.84;;;16.51;40.73
36192;BME280;22233;42.708;23.360;2024-03-06T11:31:15;95151.59;;;17.00;41.25
36192;BME280;22233;42.708;23.360;2024-03-06T11:33:47;95157.31;;;16.75;40.19
36192;BME280;22233;42.708;23.360;2024-03-06T11:36:25;95140.50;;;16.42;40.48
36192;BME280;22233;42.708;23.360;2024-03-06T11:39:02;95141.78;;;17.19;39.07
36192;BME280;22233;42.708;23.360;2024-03-06T11:44:12;95137.28;;;17.30;39.05
36192;BME280;22233;42.708;23.360;2024-03-06T11:46:59;95150.75;;;17.58;39.76
36192;BME280;22233;42.708;23.360;2024-03-06T11:49:27;95148.41;;;17.80;39.58
36192;BME280;22233;42.708;23.360;2024-03-06T11:52:08;95146.16;;;18.08;39.15
36192;BME280;22233;42.708;23.360;2024-03-06T11:54:34;95140.22;;;18.56;37.98
36192;BME280;22233;42.708;23.360;2024-03-06T11:57:01;95133.19;;;18.59;38.71
36192;BME280;22233;42.708;23.360;2024-03-06T11:59:28;95137.22;;;18.65;37.23
36192;BME280;22233;42.708;23.360;2024-03-06T12:01:58;95125.00;;;18.35;37.79
36192;BME280;22233;42.708;23.360;2024-03-06T12:04:27;95130.78;;;18.53;38.56
36192;BME280;22233;42.708;23.360;2024-03-06T12:06:56;95128.88;;;18.58;38.35
36192;BME280;22233;42.708;23.360;2024-03-06T12:09:22;95119.56;;;18.39;38.83
36192;BME280;22233;42.708;23.360;2024-03-06T12:11:47;95109.72;;;18.11;38.62
36192;BME280;22233;42.708;23.360;2024-03-06T12:14:14;95125.16;;;17.96;38.92
36192;BME280;22233;42.708;23.360;2024-03-06T12:16:40;95119.88;;;18.07;39.13
36192;BME280;22233;42.708;23.360;2024-03-06T12:19:05;95095.13;;;18.34;37.97
36192;BME280;22233;42.708;23.360;2024-03-06T12:21:31;95118.78;;;18.69;37.40
36192;BME280;22233;42.708;23.360;2024-03-06T12:24:09;95110.59;;;18.72;36.89
36192;BME280;22233;42.708;23.360;2024-03-06T12:26:36;95118.09;;;18.45;38.25
36192;BME280;22233;42.708;23.360;2024-03-06T12:29:09;95122.00;;;17.94;40.68
36192;BME280;22233;42.708;23.360;2024-03-06T12:31:37;95116.78;;;17.24;42.92
36192;BME280;22233;42.708;23.360;2024-03-06T12:34:05;95115.66;;;17.05;44.17
36192;BME280;22233;42.708;23.360;2024-03-06T12:36:34;95119.47;;;17.01;45.24
36192;BME280;22233;42.708;23.360;2024-03-06T12:39:02;95112.75;;;16.43;45.90
36192;BME280;22233;42.708;23.360;2024-03-06T12:41:28;95119.81;;;16.44;45.55
36192;BME280;22233;42.708;23.360;2024-03-06T12:43:54;95109.22;;;16.43;45.88
36192;BME280;22233;42.708;23.360;2024-03-06T12:46:23;95112.06;;;16.30;45.92
36192;BME280;22233;42.708;23.360;2024-03-06T12:48:50;95114.56;;;16.20;45.80
36192;BME280;22233;42.708;23.360;2024-03-06T12:51:16;95114.41;;;15.96;46.48
36192;BME280;22233;42.708;23.360;2024-03-06T12:53:41;95113.53;;;15.76;46.54
36192;BME280;22233;42.708;23.360;2024-03-06T12:56:07;95108.41;;;15.75;47.72
36192;BME280;22233;42.708;23.360;2024-03-06T12:58:33;95118.63;;;15.62;47.59
36192;BME280;22233;42.708;23.360;2024-03-06T13:01:01;95117.84;;;15.62;47.08
36192;BME280;22233;42.708;23.360;2024-03-06T13:03:27;95113.41;;;15.57;47.50